Time;durP1;ratioP1;P1;durP2;ratioP2;P2;SDS_P1;SDS_P2;PMS_P1;PMS_P2;Temp;Humidity;BMP_temperature;BMP_pressure;BME280_temperature;BME280_humidity;BME280_pressure;Samples;Min_cycle;Max_cycle;Signal;HPM_P1;HPM_P2
2021/07/09 00:01:04;;;;;;;12.77;8.50;;;;;;;17.34;72.64;100155.06;4993729;28;20096;-75
2021/07/09 00:03:29;;;;;;;10.32;7.75;;;;;;;17.29;72.94;100149.19;4994015;28;20050;-75
2021/07/09 00:05:55;;;;;;;8.93;8.00;;;;;;;17.26;72.92;100146.75;4993745;28;20414;-75
2021/07/09 00:08:20;;;;;;;19.70;11.18;;;;;;;17.24;72.71;100146.00;4990491;28;20053;-75
2021/07/09 00:10:45;;;;;;;12.68;9.98;;;;;;;17.22;72.82;100137.28;4993668;28;20037;-76
2021/07/09 00:13:11;;;;;;;12.88;10.38;;;;;;;17.18;73.33;100139.31;4993413;28;20555;-76
2021/07/09 00:15:37;;;;;;;11.85;10.13;;;;;;;17.15;73.51;100137.72;4973684;28;20034;-76
2021/07/09 00:18:03;;;;;;;13.15;11.70;;;;;;;17.10;73.66;100141.66;4993604;28;20030;-76
2021/07/09 00:20:28;;;;;;;15.82;12.77;;;;;;;17.06;73.55;100137.53;4995540;28;20513;-76
2021/07/09 00:22:54;;;;;;;12.27;9.57;;;;;;;17.04;73.27;100150.94;4995577;28;20034;-76
2021/07/09 00:25:21;;;;;;;11.52;10.27;;;;;;;17.03;73.57;100145.69;4993604;28;20101;-76
2021/07/09 00:27:47;;;;;;;14.80;11.48;;;;;;;17.02;73.34;100146.69;4992182;28;20038;-76
2021/07/09 00:30:13;;;;;;;12.07;9.98;;;;;;;16.98;73.69;100142.50;4993279;28;20398;-75
2021/07/09 00:32:38;;;;;;;16.70;9.45;;;;;;;16.92;74.23;100147.31;4993321;28;20049;-75
2021/07/09 00:35:04;;;;;;;14.25;10.77;;;;;;;16.96;73.79;100147.97;4992753;28;20504;-75
2021/07/09 00:37:29;;;;;;;13.27;11.07;;;;;;;16.93;73.92;100148.16;4992613;28;20040;-76
2021/07/09 00:39:55;;;;;;;17.10;12.85;;;;;;;16.94;73.76;100155.22;4993066;28;20038;-76
2021/07/09 00:42:20;;;;;;;14.30;9.35;;;;;;;16.89;74.07;100152.00;4992717;28;20498;-75
2021/07/09 00:44:45;;;;;;;14.20;12.07;;;;;;;16.90;74.36;100148.38;4992999;28;20113;-76
2021/07/09 00:47:11;;;;;;;13.02;11.63;;;;;;;16.89;74.30;100146.69;4975555;28;20041;-75
2021/07/09 00:49:36;;;;;;;12.65;10.70;;;;;;;16.89;74.39;100141.38;4992666;28;20064;-75
2021/07/09 00:52:02;;;;;;;17.98;11.82;;;;;;;16.90;74.18;100143.91;4993024;28;20391;-76
2021/07/09 00:54:27;;;;;;;15.07;10.25;;;;;;;16.91;73.99;100148.28;4992604;28;20034;-76
2021/07/09 00:56:53;;;;;;;12.85;11.55;;;;;;;16.94;74.10;100148.06;4992509;28;20080;-75
2021/07/09 00:59:23;;;;;;;15.93;11.23;;;;;;;16.95;74.15;100148.91;4976031;28;20089;-75
2021/07/09 01:01:49;;;;;;;17.65;12.27;;;;;;;16.95;74.08;100147.09;4969317;28;20034;-75
2021/07/09 01:04:14;;;;;;;12.43;9.70;;;;;;;16.98;74.33;100142.50;4993555;28;20046;-75
2021/07/09 01:06:40;;;;;;;13.82;10.98;;;;;;;17.02;74.02;100147.53;4993216;28;20030;-75
2021/07/09 01:09:05;;;;;;;10.07;9.07;;;;;;;17.07;73.94;100142.72;4993026;28;20042;-74
2021/07/09 01:11:30;;;;;;;14.40;11.32;;;;;;;17.16;73.12;100149.22;4992040;28;20042;-75
2021/07/09 01:13:56;;;;;;;19.95;12.13;;;;;;;17.24;72.87;100154.84;4992321;28;20057;-75
2021/07/09 01:16:21;;;;;;;18.63;11.18;;;;;;;17.30;72.78;100142.91;4992747;28;20088;-75
2021/07/09 01:18:46;;;;;;;14.05;11.82;;;;;;;17.34;72.53;100147.06;4993266;28;20038;-75
2021/07/09 01:21:12;;;;;;;12.00;10.77;;;;;;;17.40;72.17;100146.63;4993349;28;20051;-75
2021/07/09 01:23:41;;;;;;;14.10;11.35;;;;;;;17.46;72.17;100146.16;4992430;28;20039;-74
2021/07/09 01:26:08;;;;;;;14.88;13.18;;;;;;;17.50;72.20;100154.78;4992730;28;20038;-75
2021/07/09 01:28:35;;;;;;;13.18;11.82;;;;;;;17.56;71.85;100149.88;4974761;28;20034;-75
2021/07/09 01:31:01;;;;;;;16.00;12.57;;;;;;;17.59;71.45;100148.78;4991887;28;20042;-75
2021/07/09 01:33:27;;;;;;;15.75;11.90;;;;;;;17.60;71.47;100146.03;4991863;28;20027;-74
2021/07/09 01:35:53;;;;;;;12.30;10.95;;;;;;;17.63;71.28;100147.63;4975101;28;20550;-73
2021/07/09 01:38:19;;;;;;;16.13;12.77;;;;;;;17.60;71.12;100143.38;4990793;28;20505;-73
2021/07/09 01:40:44;;;;;;;13.07;11.68;;;;;;;17.59;71.58;100144.31;4982864;28;20042;-75
2021/07/09 01:43:09;;;;;;;16.77;12.68;;;;;;;17.58;71.21;100142.63;4969776;28;20522;-73
2021/07/09 01:45:35;;;;;;;14.73;12.85;;;;;;;17.62;71.24;100145.06;4972535;28;20035;-73
2021/07/09 01:48:04;;;;;;;14.02;12.60;;;;;;;17.63;71.01;100139.63;4971804;28;20035;-74
2021/07/09 01:50:30;;;;;;;16.52;12.88;;;;;;;17.64;70.95;100137.81;4972203;28;20034;-74
2021/07/09 01:52:57;;;;;;;14.68;13.00;;;;;;;17.64;71.18;100132.47;4970704;28;20042;-74
2021/07/09 01:55:22;;;;;;;15.63;12.55;;;;;;;17.62;71.07;100131.72;4971296;28;20118;-74
2021/07/09 01:57:48;;;;;;;17.75;13.18;;;;;;;17.60;70.95;100131.84;4972330;28;20109;-73
2021/07/09 02:00:20;;;;;;;16.90;11.52;;;;;;;17.58;71.50;100131.09;4972269;28;20050;-75
2021/07/09 02:02:45;;;;;;;14.07;12.25;;;;;;;17.61;71.30;100130.88;4972562;28;20445;-74
2021/07/09 02:05:14;;;;;;;14.70;12.05;;;;;;;17.60;71.47;100131.84;4970587;28;20097;-74
2021/07/09 02:07:42;;;;;;;15.93;13.02;;;;;;;17.59;71.08;100122.97;4972113;28;20034;-74
2021/07/09 02:10:08;;;;;;;15.50;13.15;;;;;;;17.58;71.22;100137.28;4977232;28;20041;-73
2021/07/09 02:12:35;;;;;;;14.73;13.13;;;;;;;17.58;70.80;100128.44;4991006;28;20034;-73
2021/07/09 02:15:05;;;;;;;16.23;13.52;;;;;;;17.59;71.09;100127.47;4991430;28;20100;-74
2021/07/09 02:17:31;;;;;;;14.52;12.43;;;;;;;17.61;71.19;100133.53;4991135;28;20145;-74
2021/07/09 02:19:56;;;;;;;14.23;12.45;;;;;;;17.58;71.16;100128.44;4990918;28;20117;-74
2021/07/09 02:22:22;;;;;;;15.45;13.48;;;;;;;17.53;71.47;100127.94;4990501;28;20034;-74
2021/07/09 02:24:50;;;;;;;13.20;11.90;;;;;;;17.47;71.62;100123.88;4987981;28;20034;-74
2021/07/09 02:27:16;;;;;;;16.15;11.73;;;;;;;17.49;71.48;100137.09;4990843;28;20034;-75
2021/07/09 02:29:42;;;;;;;16.63;12.95;;;;;;;17.49;71.17;100132.63;4991315;28;20031;-74
2021/07/09 02:32:11;;;;;;;16.35;11.73;;;;;;;17.46;71.22;100130.19;4991139;28;20042;-74
2021/07/09 02:34:38;;;;;;;16.38;11.95;;;;;;;17.46;71.44;100132.00;4990926;28;20035;-74
2021/07/09 02:37:05;;;;;;;14.68;10.68;;;;;;;17.43;71.02;100134.91;4973175;28;20101;-74
2021/07/09 02:39:31;;;;;;;13.73;11.38;;;;;;;17.41;71.54;100135.00;4990442;28;20556;-73
2021/07/09 02:41:58;;;;;;;16.10;10.35;;;;;;;17.43;71.05;100129.56;4973292;28;20030;-73
2021/07/09 02:44:24;;;;;;;13.15;11.18;;;;;;;17.42;70.95;100126.03;4991236;28;20037;-74
2021/07/09 02:46:51;;;;;;;12.80;10.57;;;;;;;17.40;71.22;100127.97;4973299;28;20030;-74
2021/07/09 02:49:17;;;;;;;15.18;13.15;;;;;;;17.38;70.85;100128.06;4990702;28;20091;-74
2021/07/09 02:51:43;;;;;;;12.85;11.27;;;;;;;17.41;71.10;100123.50;4991199;28;20038;-74
2021/07/09 02:54:08;;;;;;;18.33;12.15;;;;;;;17.41;71.01;100119.00;4990868;28;20045;-75
2021/07/09 02:56:34;;;;;;;14.98;11.15;;;;;;;17.42;71.00;100119.84;4990382;28;20049;-74
2021/07/09 02:58:59;;;;;;;12.38;10.80;;;;;;;17.43;71.04;100121.56;4990560;28;20056;-74
2021/07/09 03:01:25;;;;;;;15.10;11.23;;;;;;;17.45;70.69;100116.94;4990333;28;20050;-73
2021/07/09 03:03:52;;;;;;;16.75;11.55;;;;;;;17.41;70.94;100124.34;4990875;28;20474;-73
2021/07/09 03:06:17;;;;;;;16.33;13.18;;;;;;;17.36;71.39;100119.31;4989914;28;20068;-74
2021/07/09 03:08:43;;;;;;;13.52;11.18;;;;;;;17.36;71.44;100116.66;4990470;28;20070;-75
2021/07/09 03:11:08;;;;;;;13.63;12.18;;;;;;;17.37;70.80;100113.03;4979224;28;20079;-74
2021/07/09 03:13:33;;;;;;;15.52;10.95;;;;;;;17.38;71.28;100111.25;4972540;28;20038;-73
2021/07/09 03:15:59;;;;;;;12.57;11.10;;;;;;;17.38;70.65;100119.22;4990423;28;20069;-74
2021/07/09 03:18:24;;;;;;;14.20;11.90;;;;;;;17.36;70.98;100121.16;4988267;28;20061;-74
2021/07/09 03:20:49;;;;;;;16.48;11.75;;;;;;;17.37;71.23;100122.84;4990128;28;20038;-74
2021/07/09 03:23:15;;;;;;;17.38;11.48;;;;;;;17.37;70.81;100123.69;4990302;28;20092;-74
2021/07/09 03:25:41;;;;;;;14.48;12.20;;;;;;;17.34;71.37;100118.59;4989947;28;20406;-74
2021/07/09 03:28:06;;;;;;;13.18;10.07;;;;;;;17.33;71.07;100124.88;4972294;28;20042;-73
2021/07/09 03:30:32;;;;;;;15.98;12.52;;;;;;;17.32;71.00;100122.31;4972283;28;20038;-76
2021/07/09 03:32:57;;;;;;;14.57;11.63;;;;;;;17.33;70.93;100119.56;4990476;28;20038;-74
2021/07/09 03:35:22;;;;;;;12.75;11.13;;;;;;;17.34;71.28;100115.06;4990853;28;20034;-73
2021/07/09 03:37:48;;;;;;;14.35;12.05;;;;;;;17.34;71.07;100118.59;4988936;28;20721;-75
2021/07/09 03:40:13;;;;;;;13.38;10.38;;;;;;;17.33;70.79;100114.22;4989732;28;20046;-74
2021/07/09 03:42:39;;;;;;;14.43;11.45;;;;;;;17.34;71.16;100126.56;4989633;28;20030;-73
2021/07/09 03:45:05;;;;;;;16.95;12.43;;;;;;;17.31;70.92;100126.81;4990245;28;20046;-74
2021/07/09 03:47:31;;;;;;;13.93;12.05;;;;;;;17.31;70.94;100120.63;4990020;28;20137;-73
2021/07/09 03:49:56;;;;;;;13.43;10.60;;;;;;;17.32;70.71;100131.16;4973101;28;20607;-74
2021/07/09 03:52:22;;;;;;;16.23;11.80;;;;;;;17.33;71.19;100127.56;4990916;28;20034;-74
2021/07/09 03:54:48;;;;;;;14.02;12.57;;;;;;;17.35;70.60;100132.75;4988961;28;20038;-74
2021/07/09 03:57:13;;;;;;;17.40;12.82;;;;;;;17.35;70.53;100135.41;4988945;28;20038;-75
2021/07/09 03:59:39;;;;;;;13.82;11.02;;;;;;;17.32;70.60;100130.31;4989342;28;20043;-74
2021/07/09 04:02:04;;;;;;;13.90;11.50;;;;;;;17.30;70.73;100134.91;4972175;28;20502;-75
2021/07/09 04:04:30;;;;;;;13.73;11.10;;;;;;;17.30;70.41;100140.22;4989066;28;20041;-75
2021/07/09 04:06:55;;;;;;;12.35;10.60;;;;;;;17.27;70.69;100141.31;4989267;28;20037;-74
2021/07/09 04:09:20;;;;;;;16.75;12.35;;;;;;;17.28;70.90;100140.38;4972072;28;20030;-75
2021/07/09 04:11:46;;;;;;;14.70;11.68;;;;;;;17.25;70.70;100135.22;4986371;28;20061;-75
2021/07/09 04:14:11;;;;;;;14.13;11.00;;;;;;;17.26;70.80;100144.94;4972184;28;20494;-74
2021/07/09 04:16:36;;;;;;;13.30;11.65;;;;;;;17.26;70.76;100149.44;4971945;28;20057;-74
2021/07/09 04:19:02;;;;;;;16.38;12.25;;;;;;;17.27;70.88;100146.63;4989471;28;20034;-75
2021/07/09 04:21:27;;;;;;;15.07;11.80;;;;;;;17.26;70.48;100150.28;4989604;28;20596;-75
2021/07/09 04:23:53;;;;;;;16.38;12.07;;;;;;;17.26;70.35;100149.44;4972731;28;20068;-75
2021/07/09 04:26:18;;;;;;;13.40;11.60;;;;;;;17.26;70.59;100149.44;4989732;28;20066;-76
2021/07/09 04:28:44;;;;;;;14.30;11.38;;;;;;;17.28;70.18;100148.34;4989497;28;20097;-74
2021/07/09 04:31:09;;;;;;;16.83;13.15;;;;;;;17.29;70.13;100158.03;4952783;28;20101;-75
2021/07/09 04:33:36;;;;;;;14.45;12.05;;;;;;;17.31;70.16;100149.94;4989598;28;20039;-75
2021/07/09 04:36:01;;;;;;;16.50;12.77;;;;;;;17.35;70.07;100157.63;4989339;28;20121;-74
2021/07/09 04:38:27;;;;;;;15.75;11.55;;;;;;;17.37;69.94;100155.66;4989118;28;20103;-73
2021/07/09 04:40:52;;;;;;;14.20;11.68;;;;;;;17.39;69.53;100155.56;4989868;28;20128;-74
2021/07/09 04:43:17;;;;;;;13.63;12.05;;;;;;;17.35;69.53;100157.63;4989354;28;20045;-74
2021/07/09 04:45:43;;;;;;;13.77;11.48;;;;;;;17.35;69.79;100154.94;4973557;28;20045;-75
2021/07/09 04:48:09;;;;;;;16.25;13.10;;;;;;;17.33;69.38;100150.69;4993239;28;20042;-74
2021/07/09 04:50:35;;;;;;;14.93;12.13;;;;;;;17.31;69.78;100153.47;4993417;28;20402;-75
2021/07/09 04:53:01;;;;;;;14.45;12.02;;;;;;;17.33;69.39;100167.53;4992760;28;20089;-75
2021/07/09 04:55:26;;;;;;;14.27;12.05;;;;;;;17.35;69.52;100157.63;4994864;28;20061;-75
2021/07/09 04:57:52;;;;;;;15.57;11.35;;;;;;;17.41;69.21;100160.81;4996312;28;20101;-75
2021/07/09 05:00:17;;;;;;;11.88;10.35;;;;;;;17.38;69.33;100152.06;4978824;28;20053;-75
2021/07/09 05:02:42;;;;;;;12.30;10.65;;;;;;;17.39;69.19;100151.09;4976749;28;20192;-74
2021/07/09 05:05:10;;;;;;;17.67;13.82;;;;;;;17.42;68.87;100158.00;4992737;28;20503;-75
2021/07/09 05:07:36;;;;;;;14.75;11.63;;;;;;;17.42;69.10;100159.81;4975034;28;20062;-73
2021/07/09 05:10:04;;;;;;;15.65;12.68;;;;;;;17.41;68.69;100158.97;4993331;28;20030;-76
2021/07/09 05:12:29;;;;;;;13.82;12.15;;;;;;;17.42;68.63;100154.50;4992898;28;20030;-74
2021/07/09 05:14:54;;;;;;;13.57;11.20;;;;;;;17.46;68.47;100156.00;4993848;28;20048;-75
2021/07/09 05:17:20;;;;;;;15.57;12.00;;;;;;;17.47;68.25;100158.53;4995362;28;20108;-75
2021/07/09 05:19:45;;;;;;;15.77;11.00;;;;;;;17.51;68.14;100159.16;4997524;28;20114;-74
2021/07/09 05:22:11;;;;;;;16.02;10.90;;;;;;;17.52;68.07;100156.41;5000736;28;20093;-75
2021/07/09 05:24:37;;;;;;;14.88;11.10;;;;;;;17.52;67.92;100156.41;5004639;28;20054;-75
2021/07/09 05:27:04;;;;;;;17.00;11.50;;;;;;;17.57;67.60;100166.72;5004222;28;20038;-74
2021/07/09 05:29:29;;;;;;;13.13;10.68;;;;;;;17.63;67.21;100168.09;5006953;28;20030;-74
2021/07/09 05:31:55;;;;;;;17.08;11.05;;;;;;;17.64;67.00;100157.31;4998539;28;20518;-76
2021/07/09 05:34:20;;;;;;;12.18;10.15;;;;;;;17.67;67.11;100162.44;4994314;28;20030;-74
2021/07/09 05:36:46;;;;;;;15.10;10.35;;;;;;;17.71;66.63;100165.72;4994473;28;20088;-75
2021/07/09 05:39:15;;;;;;;12.65;10.07;;;;;;;17.76;66.33;100166.25;5005472;28;20050;-75
2021/07/09 05:41:41;;;;;;;12.32;9.82;;;;;;;17.79;66.42;100169.53;5006992;28;20058;-74
2021/07/09 05:44:06;;;;;;;13.40;10.05;;;;;;;17.82;65.81;100163.16;4980615;28;20067;-74
2021/07/09 05:46:33;;;;;;;11.30;8.30;;;;;;;17.85;65.86;100172.75;4971960;28;20042;-75
2021/07/09 05:48:58;;;;;;;15.13;10.48;;;;;;;17.88;65.61;100173.38;4972710;28;20035;-74
2021/07/09 05:51:23;;;;;;;11.27;8.52;;;;;;;17.86;65.35;100172.63;4973436;28;20131;-75
2021/07/09 05:53:49;;;;;;;11.07;8.80;;;;;;;17.83;64.84;100172.84;4974036;28;20490;-76
2021/07/09 05:56:14;;;;;;;10.65;8.93;;;;;;;17.80;65.30;100179.28;4955807;28;20466;-76
2021/07/09 05:58:40;;;;;;;10.77;8.02;;;;;;;17.81;64.91;100167.63;4972281;28;20035;-76
2021/07/09 06:01:05;;;;;;;11.15;9.48;;;;;;;17.83;65.03;100172.84;4972274;28;20090;-76
2021/07/09 06:03:30;;;;;;;14.50;8.07;;;;;;;17.84;64.34;100174.56;4956916;28;20042;-75
2021/07/09 06:05:56;;;;;;;12.40;7.55;;;;;;;17.88;64.58;100170.69;4991456;28;20101;-75
2021/07/09 06:08:21;;;;;;;9.73;7.20;;;;;;;17.91;64.12;100175.81;4991929;28;20034;-74
2021/07/09 06:10:46;;;;;;;9.27;7.78;;;;;;;17.94;64.01;100178.28;4974165;28;20553;-74
2021/07/09 06:13:12;;;;;;;11.30;7.43;;;;;;;17.94;63.33;100183.59;4991530;28;20037;-74
2021/07/09 06:15:37;;;;;;;9.20;6.82;;;;;;;17.94;63.14;100177.41;4991576;28;20121;-74
2021/07/09 06:18:03;;;;;;;11.32;7.70;;;;;;;17.98;63.31;100189.56;4991082;28;20109;-75
2021/07/09 06:20:28;;;;;;;12.30;8.30;;;;;;;18.01;63.18;100190.16;4991052;28;20050;-75
2021/07/09 06:22:53;;;;;;;8.48;6.80;;;;;;;18.02;63.18;100194.56;4991861;28;20483;-74
2021/07/09 06:25:19;;;;;;;10.07;7.18;;;;;;;18.08;63.24;100197.72;4973496;28;20038;-76
2021/07/09 06:27:44;;;;;;;7.68;6.88;;;;;;;18.12;62.60;100201.88;4990540;28;20518;-75
2021/07/09 06:30:11;;;;;;;12.70;7.53;;;;;;;18.04;62.11;100207.78;4991004;28;20418;-75
2021/07/09 06:32:36;;;;;;;11.02;7.47;;;;;;;18.04;62.39;100207.78;4972556;28;20026;-74
2021/07/09 06:35:04;;;;;;;8.60;6.78;;;;;;;18.04;62.70;100205.13;4990794;28;20045;-75
2021/07/09 06:37:30;;;;;;;14.68;6.68;;;;;;;18.05;63.13;100212.16;4990710;28;20045;-76
2021/07/09 06:39:55;;;;;;;9.48;7.22;;;;;;;18.05;63.06;100208.63;4987944;28;20034;-75
2021/07/09 06:42:21;;;;;;;9.90;6.60;;;;;;;18.02;63.01;100210.56;4991127;28;20441;-74
2021/07/09 06:44:46;;;;;;;13.70;7.30;;;;;;;18.02;63.20;100209.72;4973684;28;20092;-75
2021/07/09 06:47:12;;;;;;;9.13;6.93;;;;;;;18.05;63.11;100213.97;4990724;28;20811;-73
2021/07/09 06:49:37;;;;;;;10.43;6.13;;;;;;;18.07;63.05;100215.56;4990594;28;20071;-74
2021/07/09 06:52:03;;;;;;;9.15;6.93;;;;;;;18.11;62.92;100209.00;4990754;28;20112;-73
2021/07/09 06:54:28;;;;;;;10.38;6.75;;;;;;;18.13;62.03;100209.75;4990946;28;20061;-74
2021/07/09 06:56:53;;;;;;;11.75;6.78;;;;;;;18.13;61.89;100217.75;4990753;28;20108;-74
2021/07/09 06:59:19;;;;;;;9.95;6.10;;;;;;;18.08;61.91;100216.41;4990615;28;20030;-74
2021/07/09 07:01:44;;;;;;;10.38;6.72;;;;;;;18.05;61.83;100220.16;4990245;28;20113;-77
2021/07/09 07:04:10;;;;;;;10.00;6.03;;;;;;;18.09;61.75;100213.63;4972807;28;20054;-75
2021/07/09 07:06:36;;;;;;;12.10;6.13;;;;;;;18.09;61.84;100218.97;4972817;28;20046;-74
2021/07/09 07:09:03;;;;;;;10.85;6.93;;;;;;;18.04;61.37;100218.47;4972681;28;20417;-74
2021/07/09 07:11:28;;;;;;;7.22;5.93;;;;;;;17.99;61.66;100212.59;4990559;28;20541;-74
2021/07/09 07:13:54;;;;;;;8.15;5.85;;;;;;;18.03;61.83;100217.59;4990565;28;20057;-74
2021/07/09 07:16:19;;;;;;;10.70;6.70;;;;;;;18.13;61.40;100216.91;4963574;28;20561;-74
2021/07/09 07:18:44;;;;;;;11.18;6.88;;;;;;;18.24;61.00;100206.31;4972907;28;20453;-74
2021/07/09 07:21:10;;;;;;;11.30;5.72;;;;;;;18.31;60.46;100212.03;4972709;28;20130;-74
2021/07/09 07:23:35;;;;;;;8.98;6.65;;;;;;;18.35;60.39;100213.50;4990073;28;20031;-74
2021/07/09 07:26:01;;;;;;;16.45;10.85;;;;;;;18.38;60.52;100207.94;4990050;28;20034;-74
2021/07/09 07:28:26;;;;;;;8.25;6.88;;;;;;;18.36;60.55;100207.19;4990398;28;20499;-74
2021/07/09 07:30:51;;;;;;;11.20;7.72;;;;;;;18.34;61.21;100214.47;4990027;28;20058;-75
2021/07/09 07:33:17;;;;;;;10.93;7.53;;;;;;;18.34;62.07;100211.81;4980668;28;20044;-74
2021/07/09 07:35:42;;;;;;;10.43;7.55;;;;;;;18.30;62.61;100205.84;4989742;28;20045;-74
2021/07/09 07:38:08;;;;;;;8.38;7.38;;;;;;;18.30;62.96;100205.84;4989751;28;20125;-74
2021/07/09 07:40:35;;;;;;;12.27;8.00;;;;;;;18.29;63.37;100211.31;4989884;28;20046;-75
2021/07/09 07:43:00;;;;;;;10.27;6.22;;;;;;;18.29;61.63;100211.31;4989785;28;20046;-74
2021/07/09 07:45:26;;;;;;;11.52;5.40;;;;;;;18.28;59.54;100206.91;4990220;28;20038;-74
2021/07/09 07:47:52;;;;;;;5.53;4.53;;;;;;;18.25;59.07;100202.66;4989479;28;20037;-75
2021/07/09 07:50:21;;;;;;;9.65;4.90;;;;;;;18.18;59.73;100207.59;4990318;28;20408;-75
2021/07/09 07:52:47;;;;;;;7.07;4.30;;;;;;;18.07;58.04;100204.88;4990188;28;20027;-75
2021/07/09 07:55:13;;;;;;;6.97;4.10;;;;;;;18.03;57.45;100203.41;4990494;28;20041;-75
2021/07/09 07:57:38;;;;;;;5.07;3.22;;;;;;;18.06;58.01;100210.31;4989820;28;20035;-76
2021/07/09 08:00:05;;;;;;;7.32;3.08;;;;;;;18.08;57.75;100213.75;4972764;28;20039;-76
2021/07/09 08:02:30;;;;;;;4.95;3.35;;;;;;;18.07;57.59;100210.22;4989556;28;20049;-75
2021/07/09 08:04:56;;;;;;;4.88;3.33;;;;;;;18.08;56.76;100219.06;4990878;28;20061;-76
2021/07/09 08:07:21;;;;;;;3.20;2.90;;;;;;;18.09;56.61;100218.97;4989917;28;20117;-75
2021/07/09 08:09:46;;;;;;;3.85;2.85;;;;;;;18.13;56.38;100219.59;4986670;28;20042;-75
2021/07/09 08:12:12;;;;;;;7.25;3.00;;;;;;;18.12;56.25;100216.06;4988427;28;20042;-75
2021/07/09 08:14:37;;;;;;;5.35;3.45;;;;;;;18.18;56.29;100220.94;4972538;28;20399;-74
2021/07/09 08:17:04;;;;;;;9.13;4.10;;;;;;;18.23;56.86;100228.63;4989804;28;20097;-76
2021/07/09 08:19:29;;;;;;;5.80;3.60;;;;;;;18.29;57.33;100230.00;4990001;28;20509;-75
2021/07/09 08:21:55;;;;;;;9.15;7.05;;;;;;;18.32;58.17;100232.44;4994033;28;20045;-75
2021/07/09 08:24:20;;;;;;;5.63;5.03;;;;;;;18.33;58.74;100234.13;4993980;28;20070;-76
2021/07/09 08:26:46;;;;;;;8.75;4.72;;;;;;;18.34;59.67;100231.34;4993052;28;20045;-74
2021/07/09 08:29:11;;;;;;;7.57;5.72;;;;;;;18.37;60.31;100225.78;4994153;28;20046;-74
2021/07/09 08:31:37;;;;;;;11.05;5.93;;;;;;;18.41;61.00;100232.59;4993638;28;20041;-74
2021/07/09 08:34:04;;;;;;;7.10;6.20;;;;;;;18.45;61.24;100227.88;4993982;28;20039;-74
2021/07/09 08:36:30;;;;;;;12.98;6.47;;;;;;;18.45;61.78;100219.84;4976025;28;20046;-74
2021/07/09 08:38:55;;;;;;;21.45;7.57;;;;;;;18.42;61.79;100228.09;4993927;28;20034;-77
2021/07/09 08:41:22;;;;;;;6.53;4.88;;;;;;;18.43;61.02;100222.66;4993671;28;20564;-73
2021/07/09 08:43:47;;;;;;;12.98;5.75;;;;;;;18.49;59.99;100225.84;4995029;28;20097;-76
2021/07/09 08:46:14;;;;;;;9.63;4.72;;;;;;;18.44;58.56;100223.50;4992329;28;20039;-75
2021/07/09 08:48:41;;;;;;;8.30;4.70;;;;;;;18.44;59.22;100223.50;4995126;28;20034;-74
2021/07/09 08:51:07;;;;;;;7.72;5.18;;;;;;;18.46;59.87;100226.91;4975756;28;20085;-73
2021/07/09 08:53:32;;;;;;;7.40;5.28;;;;;;;18.45;60.09;100226.03;4993271;28;20034;-74
2021/07/09 08:55:59;;;;;;;9.70;5.10;;;;;;;18.45;60.57;100222.53;4993266;28;20046;-74
2021/07/09 08:58:25;;;;;;;4.85;4.28;;;;;;;18.44;61.15;100221.69;4977056;28;20041;-75
2021/07/09 09:00:51;;;;;;;8.70;4.90;;;;;;;18.45;61.30;100230.53;4994113;28;20034;-75
2021/07/09 09:03:22;;;;;;;6.32;4.90;;;;;;;18.45;61.23;100225.19;4993439;28;20054;-75
2021/07/09 09:05:48;;;;;;;7.88;5.13;;;;;;;18.44;61.53;100229.69;4993584;28;21759;-75
2021/07/09 09:08:16;;;;;;;7.68;5.40;;;;;;;18.47;61.49;100227.75;4993166;28;20043;-75
2021/07/09 09:10:50;;;;;;;11.80;6.15;;;;;;;18.45;61.61;100223.38;4975447;28;20380;-77
2021/07/09 09:13:23;;;;;;;10.15;5.82;;;;;;;18.42;62.29;100228.94;4992613;28;20034;-75
2021/07/09 09:16:10;;;;;;;11.00;5.03;;;;;;;18.49;62.70;100220.50;4992711;28;20550;-74
2021/07/09 09:18:54;;;;;;;19.90;7.20;;;;;;;18.46;63.08;100218.91;4992253;28;20042;-74
2021/07/09 09:21:22;;;;;;;7.10;6.20;;;;;;;18.47;63.36;100220.59;4992968;28;20042;-76
2021/07/09 09:23:47;;;;;;;8.65;6.55;;;;;;;18.45;63.59;100219.84;4993100;28;20041;-75
2021/07/09 09:26:12;;;;;;;7.50;6.25;;;;;;;18.47;63.77;100217.09;4975673;28;20038;-75
2021/07/09 09:28:38;;;;;;;9.65;7.22;;;;;;;18.53;63.83;100230.78;4975074;28;20560;-75
2021/07/09 09:31:04;;;;;;;10.93;7.25;;;;;;;18.53;63.98;100230.78;4992368;28;20521;-75
2021/07/09 09:33:35;;;;;;;16.17;9.50;;;;;;;18.59;64.01;100227.69;4993085;28;20065;-74
2021/07/09 09:36:05;;;;;;;25.80;12.60;;;;;;;18.61;64.14;100228.41;4992253;28;20057;-76
2021/07/09 09:38:30;;;;;;;22.60;11.18;;;;;;;18.64;64.11;100228.19;4991972;28;20034;-74
2021/07/09 09:40:58;;;;;;;21.42;10.13;;;;;;;18.65;64.35;100223.69;4992824;28;20035;-74
2021/07/09 09:43:26;;;;;;;13.38;8.60;;;;;;;18.71;64.29;100225.06;4992357;28;20169;-75
2021/07/09 09:46:05;;;;;;;16.33;13.50;;;;;;;18.82;64.47;100227.78;4991713;28;20034;-74
2021/07/09 09:48:48;;;;;;;12.35;9.98;;;;;;;18.89;64.05;100221.00;4992407;28;20390;-75
2021/07/09 09:51:34;;;;;;;16.50;11.80;;;;;;;18.98;63.84;100227.47;4992505;28;20074;-75
2021/07/09 09:54:07;;;;;;;21.35;17.15;;;;;;;19.04;63.73;100217.13;4990393;28;20046;-74
2021/07/09 09:56:42;;;;;;;15.63;10.77;;;;;;;19.13;63.19;100220.94;4971718;28;20038;-74
2021/07/09 09:59:12;;;;;;;14.02;11.23;;;;;;;19.19;62.92;100220.44;4989745;28;20434;-74
2021/07/09 10:01:44;;;;;;;10.80;9.70;;;;;;;19.25;62.83;100213.78;4971259;28;20042;-75
2021/07/09 10:04:09;;;;;;;11.13;8.20;;;;;;;19.38;62.57;100217.16;4988808;28;20097;-74
2021/07/09 10:06:35;;;;;;;10.90;8.27;;;;;;;19.49;62.49;100201.13;4989103;28;20613;-74
2021/07/09 10:09:01;;;;;;;11.20;8.55;;;;;;;19.47;61.51;100207.56;4989063;28;20125;-73
2021/07/09 10:11:26;;;;;;;8.43;7.45;;;;;;;19.49;62.00;100201.13;4986020;28;20726;-74
2021/07/09 10:13:52;;;;;;;12.45;8.23;;;;;;;19.60;61.10;100202.09;4988843;28;20038;-74
2021/07/09 10:16:17;;;;;;;9.73;8.75;;;;;;;19.59;60.85;100203.03;4988875;28;20042;-75
2021/07/09 10:18:43;;;;;;;13.38;6.55;;;;;;;19.61;61.12;100203.78;4989048;28;20034;-76
2021/07/09 10:21:09;;;;;;;19.60;9.52;;;;;;;19.67;60.15;100193.47;4988802;28;20054;-74
2021/07/09 10:23:34;;;;;;;16.02;8.57;;;;;;;19.72;59.92;100199.31;4989215;28;20030;-74
2021/07/09 10:26:00;;;;;;;8.82;7.75;;;;;;;19.78;59.92;100197.94;4989072;28;20097;-74
2021/07/09 10:28:25;;;;;;;8.35;6.72;;;;;;;19.87;59.04;100202.56;4989688;28;20081;-74
2021/07/09 10:30:53;;;;;;;11.63;7.07;;;;;;;19.81;59.13;100199.53;4989826;28;20037;-75
2021/07/09 10:33:35;;;;;;;9.27;7.00;;;;;;;19.80;59.16;100200.50;4989488;28;20130;-75
2021/07/09 10:36:26;;;;;;;7.75;6.70;;;;;;;19.94;59.12;100198.41;4989111;28;20041;-74
2021/07/09 10:38:53;;;;;;;6.40;5.78;;;;;;;20.04;57.35;100201.19;4988565;28;20038;-76
2021/07/09 10:41:19;;;;;;;10.00;5.70;;;;;;;20.40;56.18;100198.25;4987495;28;20070;-77
2021/07/09 10:44:13;;;;;;;12.63;6.22;;;;;;;20.59;54.57;100196.59;4987706;28;20117;-75
2021/07/09 10:46:38;;;;;;;7.65;5.35;;;;;;;20.50;55.09;100188.44;4988015;28;20042;-74
2021/07/09 10:49:03;;;;;;;5.60;4.97;;;;;;;20.45;54.08;100201.38;4971240;28;20459;-74
2021/07/09 10:51:52;;;;;;;7.07;4.85;;;;;;;20.59;53.88;100193.91;4970812;28;20512;-75
2021/07/09 10:54:28;;;;;;;8.43;4.57;;;;;;;20.85;52.93;100196.22;4971162;28;20499;-75
2021/07/09 10:57:20;;;;;;;4.47;3.90;;;;;;;21.18;50.34;100195.13;4971385;28;20038;-76
2021/07/09 11:00:20;;;;;;;7.68;4.40;;;;;;;21.55;50.63;100199.97;4988400;28;20038;-74
2021/07/09 11:03:03;;;;;;;5.82;4.53;;;;;;;21.80;50.02;100198.63;4988141;28;20038;-75
2021/07/09 11:05:44;;;;;;;6.75;4.72;;;;;;;22.00;49.98;100201.34;4988457;28;20026;-74
2021/07/09 11:08:34;;;;;;;6.25;4.80;;;;;;;22.31;49.33;100191.38;4988063;28;20498;-75
2021/07/09 11:11:00;;;;;;;8.48;4.65;;;;;;;22.73;48.53;100185.69;4987512;28;20049;-74
2021/07/09 11:13:41;;;;;;;13.68;4.80;;;;;;;23.12;48.31;100185.63;4988543;28;20034;-74